Terminal Aerodrome Forecast
Issued by NWS Wichita, KS

Home | Current Version | Previous Version | Text Only | Print | Product List | Glossary Off
Versions: 1 2 3 4 5 6 7 8 9 10 11 12 13 14 15 16 17 18 19

986
FTUS43 KICT 271134
TAFICT
TAF
KICT 271134Z 2712/2812 35010KT P6SM OVC008
     FM271500 34011KT P6SM OVC012
     FM271700 36008KT P6SM BKN020
     FM272100 36008KT P6SM SCT035
     FM280000 05006KT P6SM FEW200=

USA.gov is the U.S. government's official web portal to all federal, state and local government web resources and services.